createdAt,value
2023-02-04T00:00:08.937Z,12.78
2023-02-04T00:02:35.625Z,12.74
2023-02-04T00:05:02.356Z,12.63
2023-02-04T00:07:29.036Z,12.77
2023-02-04T00:09:55.893Z,12.83
2023-02-04T00:12:22.711Z,12.57
2023-02-04T00:14:49.586Z,12.66
2023-02-04T00:17:17.071Z,12.46
2023-02-04T00:19:43.881Z,12.72
2023-02-04T00:22:10.831Z,12.33
2023-02-04T00:24:38.369Z,12.32
2023-02-04T00:27:06.029Z,12.48
2023-02-04T00:29:32.784Z,12.47
2023-02-04T00:31:59.586Z,12.65
2023-02-04T00:34:27.404Z,12.38
2023-02-04T00:36:54.043Z,12.54
2023-02-04T00:39:20.717Z,12.59
2023-02-04T00:41:47.337Z,12.70
2023-02-04T00:44:14.382Z,12.77
2023-02-04T00:46:42.477Z,12.87
2023-02-04T00:49:10.866Z,12.86
2023-02-04T00:51:39.037Z,12.52
2023-02-04T00:54:06.861Z,13.01
2023-02-04T00:56:35.426Z,12.88
2023-02-04T00:59:02.688Z,12.91
2023-02-04T01:01:29.650Z,12.75
2023-02-04T01:03:56.303Z,12.72
2023-02-04T01:06:23.823Z,12.60
2023-02-04T01:08:50.753Z,12.49
2023-02-04T01:11:18.483Z,12.53
2023-02-04T01:13:45.604Z,12.62
2023-02-04T01:16:13.122Z,12.44
2023-02-04T01:18:39.764Z,12.33
2023-02-04T01:21:06.538Z,12.31
2023-02-04T01:23:33.271Z,12.18
2023-02-04T01:26:00.366Z,12.39
2023-02-04T01:28:27.302Z,12.38
2023-02-04T01:30:54.220Z,12.31
2023-02-04T01:33:21.692Z,12.54
2023-02-04T01:35:48.340Z,12.41
2023-02-04T01:38:15.015Z,12.68
2023-02-04T01:40:42.676Z,12.78
2023-02-04T01:43:11.454Z,12.78
2023-02-04T01:45:38.388Z,12.82
2023-02-04T01:48:06.701Z,12.81
2023-02-04T01:50:34.125Z,13.05
2023-02-04T01:53:01.182Z,13.11
2023-02-04T01:55:30.375Z,12.97
2023-02-04T01:57:58.713Z,13.01
2023-02-04T02:00:33.709Z,13.01
2023-02-04T02:03:00.826Z,12.93
2023-02-04T02:05:35.470Z,13.03
2023-02-04T02:08:04.645Z,13.08
2023-02-04T02:10:32.579Z,13.14
2023-02-04T02:12:59.700Z,12.93
2023-02-04T02:15:26.809Z,12.89
2023-02-04T02:17:55.327Z,13.03
2023-02-04T02:20:24.786Z,13.07
2023-02-04T02:23:06.845Z,13.13
2023-02-04T02:25:33.890Z,12.98
2023-02-04T02:28:02.761Z,13.09
2023-02-04T02:30:30.081Z,12.72
2023-02-04T02:32:57.696Z,13.05
2023-02-04T02:35:24.465Z,13.10
2023-02-04T02:37:51.519Z,13.06
2023-02-04T02:40:18.708Z,13.09
2023-02-04T02:42:48.020Z,13.13
2023-02-04T02:45:22.731Z,13.16
2023-02-04T02:47:50.443Z,13.21
2023-02-04T02:50:21.185Z,13.16
2023-02-04T02:52:48.980Z,13.28
2023-02-04T02:55:18.401Z,13.16
2023-02-04T02:57:46.678Z,13.25
2023-02-04T03:00:34.051Z,13.26
2023-02-04T03:03:16.002Z,13.17
2023-02-04T03:05:46.541Z,13.23
2023-02-04T03:08:15.173Z,13.22
2023-02-04T03:10:43.202Z,13.15
2023-02-04T03:13:12.099Z,13.09
2023-02-04T03:15:39.116Z,13.11
2023-02-04T03:18:06.386Z,13.16
2023-02-04T03:20:34.087Z,13.15
2023-02-04T03:23:01.180Z,13.25
2023-02-04T03:25:28.337Z,13.28
2023-02-04T03:27:58.466Z,13.29
2023-02-04T03:30:26.446Z,13.21
2023-02-04T03:32:53.695Z,13.19
2023-02-04T03:35:20.601Z,13.29
2023-02-04T03:37:47.575Z,13.33
2023-02-04T03:40:14.278Z,13.23
2023-02-04T03:42:40.960Z,13.41
2023-02-04T03:45:08.023Z,13.53
2023-02-04T03:47:34.624Z,13.64
2023-02-04T03:50:01.290Z,13.49
2023-02-04T03:52:28.035Z,13.65
2023-02-04T03:54:54.681Z,13.82
2023-02-04T03:57:21.706Z,13.86
2023-02-04T03:59:48.371Z,13.90
2023-02-04T04:02:14.989Z,13.93
2023-02-04T04:04:41.739Z,13.97
2023-02-04T04:07:08.382Z,13.93
2023-02-04T04:09:35.038Z,13.95
2023-02-04T04:12:03.527Z,13.89
2023-02-04T04:14:30.262Z,13.89
2023-02-04T04:16:56.880Z,13.75
2023-02-04T04:19:24.708Z,13.80
2023-02-04T04:21:51.414Z,13.68
2023-02-04T04:24:18.277Z,13.66
2023-02-04T04:26:44.971Z,13.69
2023-02-04T04:29:11.727Z,13.67
2023-02-04T04:31:38.543Z,13.66
2023-02-04T04:34:05.322Z,13.72
2023-02-04T04:36:32.155Z,13.69
2023-02-04T04:38:59.649Z,13.66
2023-02-04T04:41:26.307Z,13.66
2023-02-04T04:43:53.010Z,13.67
2023-02-04T04:46:19.664Z,13.66
2023-02-04T04:48:46.311Z,13.61
2023-02-04T04:51:12.907Z,13.62
2023-02-04T04:53:39.554Z,13.60
2023-02-04T04:56:06.457Z,13.55
2023-02-04T04:58:33.092Z,13.55
2023-02-04T05:00:59.794Z,13.52
2023-02-04T05:03:27.131Z,13.52
2023-02-04T05:05:53.791Z,13.51
2023-02-04T05:08:20.913Z,13.53
2023-02-04T05:10:47.911Z,13.56
2023-02-04T05:13:16.238Z,13.47
2023-02-04T05:15:43.017Z,13.48
2023-02-04T05:18:09.747Z,13.52
2023-02-04T05:20:36.457Z,13.54
2023-02-04T05:23:05.460Z,13.55
2023-02-04T05:25:33.138Z,13.51
2023-02-04T05:27:59.914Z,13.52
2023-02-04T05:30:26.553Z,13.49
2023-02-04T05:32:53.272Z,13.48
2023-02-04T05:35:20.309Z,13.47
2023-02-04T05:37:46.973Z,13.44
2023-02-04T05:40:14.055Z,13.38
2023-02-04T05:42:41.744Z,13.31
2023-02-04T05:45:18.958Z,13.25
2023-02-04T05:47:45.920Z,13.15
2023-02-04T05:50:12.942Z,13.17
2023-02-04T05:52:40.321Z,13.19
2023-02-04T05:55:08.265Z,13.14
2023-02-04T05:57:34.890Z,13.08
2023-02-04T06:00:01.656Z,12.86
2023-02-04T06:02:38.722Z,12.84
2023-02-04T06:05:05.937Z,12.79
2023-02-04T06:07:32.602Z,12.86
2023-02-04T06:10:00.326Z,12.84
2023-02-04T06:12:27.111Z,12.78
2023-02-04T06:14:53.797Z,12.79
2023-02-04T06:17:20.447Z,12.75
2023-02-04T06:19:47.120Z,12.82
2023-02-04T06:22:13.809Z,13.01
2023-02-04T06:24:40.440Z,12.97
2023-02-04T06:27:07.125Z,13.00
2023-02-04T06:29:33.774Z,13.01
2023-02-04T06:32:00.472Z,13.01
2023-02-04T06:34:27.252Z,12.99
2023-02-04T06:36:53.909Z,12.94
2023-02-04T06:39:21.118Z,12.89
2023-02-04T06:41:47.758Z,12.82
2023-02-04T06:44:14.346Z,12.88
2023-02-04T06:46:41.006Z,12.86
2023-02-04T06:49:07.659Z,12.81
2023-02-04T06:51:34.268Z,12.78
2023-02-04T06:54:00.872Z,12.75
2023-02-04T06:56:29.360Z,12.72
2023-02-04T06:58:55.981Z,12.72
2023-02-04T07:01:22.631Z,12.70
2023-02-04T07:03:49.312Z,12.72
2023-02-04T07:06:16.122Z,12.65
2023-02-04T07:08:42.801Z,12.58
2023-02-04T07:11:09.535Z,12.56
2023-02-04T07:13:36.177Z,12.57
2023-02-04T07:16:02.878Z,12.55
2023-02-04T07:18:29.700Z,12.52
2023-02-04T07:20:56.397Z,12.45
2023-02-04T07:23:24.782Z,12.42
2023-02-04T07:25:55.908Z,12.36
2023-02-04T07:28:23.042Z,12.37
2023-02-04T07:30:50.091Z,12.32
2023-02-04T07:33:17.217Z,12.31
2023-02-04T07:35:44.374Z,12.29
2023-02-04T07:38:10.985Z,12.22
2023-02-04T07:40:39.133Z,12.21
2023-02-04T07:43:05.978Z,12.21
2023-02-04T07:45:33.661Z,12.22
2023-02-04T07:48:00.312Z,12.24
2023-02-04T07:50:27.006Z,12.26
2023-02-04T07:52:53.820Z,12.28
2023-02-04T07:55:20.477Z,12.27
2023-02-04T07:57:47.155Z,12.31
2023-02-04T08:00:14.457Z,12.36
2023-02-04T08:02:41.874Z,12.43
2023-02-04T08:05:09.852Z,12.54
2023-02-04T08:07:36.601Z,12.60
2023-02-04T08:10:04.727Z,12.57
2023-02-04T08:12:31.486Z,12.51
2023-02-04T08:14:58.370Z,12.31
2023-02-04T08:17:25.131Z,12.34
2023-02-04T08:19:51.876Z,12.25
2023-02-04T08:22:18.558Z,12.29
2023-02-04T08:24:45.343Z,12.32
2023-02-04T08:27:12.039Z,12.34
2023-02-04T08:29:38.675Z,12.38
2023-02-04T08:32:05.491Z,12.60
2023-02-04T08:34:32.233Z,12.88
2023-02-04T08:36:58.898Z,13.01
2023-02-04T08:39:25.535Z,13.35
2023-02-04T08:41:52.129Z,13.72
2023-02-04T08:44:18.719Z,14.12
2023-02-04T08:46:45.464Z,14.56
2023-02-04T08:49:12.231Z,14.96
2023-02-04T08:51:38.925Z,15.16
2023-02-04T08:54:05.539Z,15.24
2023-02-04T08:56:32.155Z,15.63
2023-02-04T08:58:58.741Z,16.10
2023-02-04T09:01:25.443Z,16.46
2023-02-04T09:03:52.288Z,16.69
2023-02-04T09:06:19.267Z,16.76
2023-02-04T09:08:45.910Z,16.98
2023-02-04T09:11:12.592Z,16.99
2023-02-04T09:13:39.506Z,16.85
2023-02-04T09:16:06.556Z,16.93
2023-02-04T09:18:33.328Z,16.63
2023-02-04T09:21:00.360Z,16.58
2023-02-04T09:23:26.954Z,16.62
2023-02-04T09:25:53.711Z,16.70
2023-02-04T09:28:20.402Z,16.64
2023-02-04T09:30:48.458Z,16.89
2023-02-04T09:33:16.859Z,17.26
2023-02-04T09:35:43.889Z,17.68
2023-02-04T09:38:10.819Z,18.44
2023-02-04T09:40:42.511Z,18.07
2023-02-04T09:43:18.146Z,19.37
2023-02-04T09:45:44.943Z,20.77
2023-02-04T09:48:14.511Z,22.17
2023-02-04T09:50:41.667Z,23.71
2023-02-04T09:53:14.922Z,24.82
2023-02-04T09:55:45.398Z,24.65
2023-02-04T09:58:18.007Z,24.45
2023-02-04T10:00:46.692Z,24.52
2023-02-04T10:03:18.976Z,24.02
2023-02-04T10:05:46.899Z,23.67
2023-02-04T10:08:19.702Z,23.29
2023-02-04T10:10:49.044Z,24.06
2023-02-04T10:13:27.343Z,25.11
2023-02-04T10:15:54.019Z,24.97
2023-02-04T10:18:28.902Z,25.96
2023-02-04T10:21:11.760Z,26.81
2023-02-04T10:23:38.685Z,27.92
2023-02-04T10:26:05.318Z,27.44
2023-02-04T10:28:36.754Z,28.20
2023-02-04T10:31:04.068Z,30.50
2023-02-04T10:33:31.654Z,31.28
2023-02-04T10:35:58.355Z,31.04
2023-02-04T10:38:25.065Z,30.32
2023-02-04T10:41:05.732Z,29.87
2023-02-04T10:43:32.621Z,28.84
2023-02-04T10:46:02.717Z,27.65
2023-02-04T10:48:30.856Z,26.74
2023-02-04T10:50:59.213Z,25.85
2023-02-04T10:53:45.670Z,25.21
2023-02-04T10:56:21.199Z,24.97
2023-02-04T10:58:49.355Z,24.54
2023-02-04T11:01:16.832Z,23.83
2023-02-04T11:03:47.006Z,22.92
2023-02-04T11:06:21.761Z,22.53
2023-02-04T11:08:50.145Z,22.12
2023-02-04T11:11:20.311Z,20.96
2023-02-04T11:13:49.923Z,19.36
2023-02-04T11:16:35.451Z,18.51
2023-02-04T11:19:10.828Z,18.17
2023-02-04T11:21:37.408Z,18.17
2023-02-04T11:24:16.216Z,18.58
2023-02-04T11:26:49.205Z,18.70
2023-02-04T11:29:16.684Z,18.51
2023-02-04T11:31:49.559Z,18.22
2023-02-04T11:34:16.211Z,17.97
2023-02-04T11:36:58.997Z,17.65
2023-02-04T11:39:34.147Z,17.79
2023-02-04T11:42:01.482Z,17.86
2023-02-04T11:44:28.563Z,18.19
2023-02-04T11:46:56.775Z,18.28
2023-02-04T11:49:25.558Z,17.85
2023-02-04T11:52:03.940Z,17.49
2023-02-04T11:54:30.600Z,17.36
2023-02-04T11:56:59.785Z,17.47
2023-02-04T11:59:26.763Z,17.57
2023-02-04T12:02:16.723Z,17.56
2023-02-04T12:04:58.396Z,17.77
2023-02-04T12:07:28.553Z,17.93
2023-02-04T12:09:55.995Z,18.06
2023-02-04T12:12:30.762Z,18.39
2023-02-04T12:15:03.993Z,19.32
2023-02-04T12:17:30.767Z,20.63
2023-02-04T12:19:57.457Z,21.25
2023-02-04T12:22:24.129Z,21.40
2023-02-04T12:24:52.331Z,21.11
2023-02-04T12:27:19.406Z,21.13
2023-02-04T12:29:46.214Z,21.11
2023-02-04T12:32:12.894Z,20.66
2023-02-04T12:34:39.590Z,21.08
2023-02-04T12:37:06.201Z,20.84
2023-02-04T12:39:32.838Z,20.56
2023-02-04T12:41:59.452Z,19.97
2023-02-04T12:44:26.116Z,19.47
2023-02-04T12:46:52.832Z,19.28
2023-02-04T12:49:20.794Z,18.84
2023-02-04T12:51:47.400Z,18.74
2023-02-04T12:54:14.087Z,18.94
2023-02-04T12:56:41.467Z,19.21
2023-02-04T12:59:08.120Z,19.62
2023-02-04T13:01:34.863Z,19.50
2023-02-04T13:04:01.628Z,19.30
2023-02-04T13:06:28.365Z,19.03
2023-02-04T13:08:55.023Z,18.55
2023-02-04T13:11:21.651Z,18.00
2023-02-04T13:13:48.292Z,17.38
2023-02-04T13:16:14.974Z,17.00
2023-02-04T13:18:41.629Z,16.76
2023-02-04T13:21:08.350Z,16.55
2023-02-04T13:23:35.037Z,16.68
2023-02-04T13:26:01.976Z,16.78
2023-02-04T13:28:28.626Z,16.84
2023-02-04T13:30:55.254Z,16.91
2023-02-04T13:33:21.974Z,17.04
2023-02-04T13:35:48.624Z,17.16
2023-02-04T13:38:15.224Z,17.01
2023-02-04T13:40:41.879Z,16.89
2023-02-04T13:43:08.680Z,16.77
2023-02-04T13:45:35.785Z,16.83
2023-02-04T13:48:02.670Z,17.00
2023-02-04T13:50:30.072Z,17.11
2023-02-04T13:52:56.824Z,17.01
2023-02-04T13:55:24.291Z,17.30
2023-02-04T13:57:50.922Z,17.05
2023-02-04T14:00:17.947Z,16.92
2023-02-04T14:02:44.658Z,16.92
2023-02-04T14:05:11.515Z,17.13
2023-02-04T14:07:38.103Z,17.36
2023-02-04T14:10:05.177Z,17.39
2023-02-04T14:12:31.783Z,17.43
2023-02-04T14:14:58.540Z,17.02
2023-02-04T14:17:25.270Z,16.75
2023-02-04T14:19:51.909Z,16.86
2023-02-04T14:22:18.564Z,16.86
2023-02-04T14:24:47.434Z,16.89
2023-02-04T14:27:17.069Z,16.97
2023-02-04T14:29:43.732Z,16.85
2023-02-04T14:32:10.388Z,16.95
2023-02-04T14:34:37.084Z,16.66
2023-02-04T14:37:03.703Z,16.57
2023-02-04T14:39:30.335Z,16.47
2023-02-04T14:41:57.059Z,16.35
2023-02-04T14:44:23.676Z,16.25
2023-02-04T14:46:50.438Z,16.02
2023-02-04T14:49:17.504Z,15.84
2023-02-04T14:51:44.580Z,15.53
2023-02-04T14:54:11.335Z,15.45
2023-02-04T14:56:38.323Z,15.29
2023-02-04T14:59:05.203Z,15.28
2023-02-04T15:01:32.037Z,15.20
2023-02-04T15:03:58.809Z,15.11
2023-02-04T15:06:25.550Z,15.04
2023-02-04T15:08:52.377Z,14.98
2023-02-04T15:11:19.095Z,14.95
2023-02-04T15:13:46.617Z,14.86
2023-02-04T15:16:14.747Z,14.74
2023-02-04T15:18:41.885Z,14.77
2023-02-04T15:21:08.620Z,14.82
2023-02-04T15:23:35.361Z,14.87
2023-02-04T15:26:05.130Z,14.86
2023-02-04T15:28:31.989Z,14.83
2023-02-04T15:30:58.815Z,14.73
2023-02-04T15:33:25.608Z,14.58
2023-02-04T15:35:52.286Z,14.52
2023-02-04T15:38:19.128Z,14.45
2023-02-04T15:40:45.858Z,14.38
2023-02-04T15:43:12.554Z,14.29
2023-02-04T15:45:41.424Z,14.29
2023-02-04T15:48:08.522Z,14.28
2023-02-04T15:50:35.598Z,14.26
2023-02-04T15:53:02.651Z,14.25
2023-02-04T15:55:29.522Z,14.29
2023-02-04T15:57:56.323Z,14.24
2023-02-04T16:00:25.275Z,14.29
2023-02-04T16:02:52.023Z,14.24
2023-02-04T16:05:18.793Z,14.29
2023-02-04T16:07:45.538Z,14.25
2023-02-04T16:10:12.270Z,14.24
2023-02-04T16:12:41.825Z,14.29
2023-02-04T16:15:09.382Z,14.30
2023-02-04T16:17:36.644Z,14.23
2023-02-04T16:20:03.891Z,14.19
2023-02-04T16:22:30.777Z,14.16
2023-02-04T16:24:57.518Z,14.14
2023-02-04T16:27:24.395Z,14.09
2023-02-04T16:29:51.229Z,14.09
2023-02-04T16:32:18.125Z,14.08
2023-02-04T16:34:45.289Z,14.09
2023-02-04T16:37:12.103Z,14.07
2023-02-04T16:39:39.008Z,14.05
2023-02-04T16:42:08.566Z,13.99
2023-02-04T16:44:38.674Z,13.93
2023-02-04T16:47:06.950Z,13.86
2023-02-04T16:49:34.228Z,13.77
2023-02-04T16:52:04.234Z,13.70
2023-02-04T16:54:31.749Z,13.69
2023-02-04T16:57:00.327Z,13.63
2023-02-04T16:59:28.359Z,13.51
2023-02-04T17:01:57.588Z,13.48
2023-02-04T17:04:28.990Z,13.41
2023-02-04T17:06:56.471Z,13.34
2023-02-04T17:09:23.166Z,13.31
2023-02-04T17:11:49.897Z,13.27
2023-02-04T17:14:16.638Z,13.25
2023-02-04T17:16:43.926Z,13.16
2023-02-04T17:19:10.878Z,13.07
2023-02-04T17:21:40.768Z,12.99
2023-02-04T17:24:08.431Z,12.90
2023-02-04T17:26:39.714Z,12.88
2023-02-04T17:29:08.822Z,12.87
2023-02-04T17:31:35.962Z,12.91
2023-02-04T17:34:03.271Z,12.94
2023-02-04T17:36:31.166Z,12.91
2023-02-04T17:38:57.967Z,12.75
2023-02-04T17:41:24.705Z,12.66
2023-02-04T17:43:51.504Z,12.57
2023-02-04T17:46:18.242Z,12.48
2023-02-04T17:48:44.938Z,12.38
2023-02-04T17:51:11.723Z,12.28
2023-02-04T17:53:40.402Z,12.22
2023-02-04T17:56:12.292Z,12.13
2023-02-04T17:58:39.541Z,12.05
2023-02-04T18:01:15.702Z,11.96
2023-02-04T18:03:43.229Z,11.90
2023-02-04T18:06:27.121Z,11.87
2023-02-04T18:09:01.146Z,11.87
2023-02-04T18:11:31.760Z,11.82
2023-02-04T18:14:25.216Z,11.63
2023-02-04T18:16:56.758Z,11.59
2023-02-04T18:19:30.866Z,11.55
2023-02-04T18:21:58.656Z,11.52
2023-02-04T18:24:30.324Z,11.56
2023-02-04T18:27:01.221Z,11.58
2023-02-04T18:29:33.004Z,11.57
2023-02-04T18:32:25.883Z,11.56
2023-02-04T18:34:55.154Z,11.56
2023-02-04T18:37:42.126Z,11.47
2023-02-04T18:40:08.748Z,11.46
2023-02-04T18:42:43.651Z,11.54
2023-02-04T18:45:31.014Z,11.60
2023-02-04T18:48:00.404Z,11.59
2023-02-04T18:50:34.323Z,11.63
2023-02-04T18:53:13.493Z,11.72
2023-02-04T18:55:51.362Z,11.76
2023-02-04T18:58:36.143Z,11.60
2023-02-04T19:01:11.643Z,11.73
2023-02-04T19:04:02.190Z,11.82
2023-02-04T19:06:39.331Z,11.81
2023-02-04T19:09:12.192Z,11.83
2023-02-04T19:11:41.802Z,11.89
2023-02-04T19:14:22.892Z,11.93
2023-02-04T19:16:52.471Z,11.91
2023-02-04T19:19:39.193Z,11.86
2023-02-04T19:22:26.955Z,11.76
2023-02-04T19:25:19.177Z,11.79
2023-02-04T19:27:50.891Z,11.76
2023-02-04T19:30:26.790Z,11.78
2023-02-04T19:32:58.066Z,11.75
2023-02-04T19:35:35.476Z,11.76
2023-02-04T19:38:28.677Z,11.84
2023-02-04T19:40:55.376Z,11.94
2023-02-04T19:43:24.316Z,11.94
2023-02-04T19:45:51.241Z,11.92
2023-02-04T19:48:38.313Z,11.94
2023-02-04T19:51:17.790Z,11.98
2023-02-04T19:53:46.962Z,11.98
2023-02-04T19:56:43.364Z,12.00
2023-02-04T19:59:29.583Z,12.02
2023-02-04T20:02:21.391Z,12.04
2023-02-04T20:04:54.084Z,12.02
2023-02-04T20:07:25.032Z,12.01
2023-02-04T20:10:22.497Z,11.95
2023-02-04T20:12:52.175Z,11.78
2023-02-04T20:15:20.926Z,11.65
2023-02-04T20:17:49.088Z,11.56
2023-02-04T20:20:30.967Z,11.56
2023-02-04T20:22:59.427Z,11.54
2023-02-04T20:25:39.689Z,11.65
2023-02-04T20:28:19.583Z,11.72
2023-02-04T20:30:49.260Z,11.84
2023-02-04T20:33:29.691Z,11.97
2023-02-04T20:36:28.170Z,12.04
2023-02-04T20:39:19.735Z,12.09
2023-02-04T20:41:47.080Z,12.11
2023-02-04T20:44:23.213Z,12.11
2023-02-04T20:46:49.898Z,12.13
2023-02-04T20:49:26.171Z,12.09
2023-02-04T20:52:00.068Z,12.06
2023-02-04T20:54:30.389Z,12.07
2023-02-04T20:57:14.846Z,12.10
2023-02-04T20:59:42.804Z,12.09
2023-02-04T21:02:20.925Z,12.04
2023-02-04T21:04:53.557Z,12.04
2023-02-04T21:07:22.589Z,11.99
2023-02-04T21:09:49.874Z,12.05
2023-02-04T21:12:16.636Z,12.02
2023-02-04T21:14:43.350Z,11.98
2023-02-04T21:17:09.988Z,11.90
2023-02-04T21:19:37.394Z,11.89
2023-02-04T21:22:04.104Z,11.89
2023-02-04T21:24:31.802Z,11.94
2023-02-04T21:26:58.863Z,11.93
2023-02-04T21:29:26.073Z,11.96
2023-02-04T21:31:54.376Z,11.95
2023-02-04T21:34:21.485Z,11.94
2023-02-04T21:36:48.215Z,11.93
2023-02-04T21:39:14.927Z,11.88
2023-02-04T21:41:41.564Z,11.88
2023-02-04T21:44:08.329Z,11.87
2023-02-04T21:46:35.045Z,11.88
2023-02-04T21:49:02.411Z,11.78
2023-02-04T21:51:29.139Z,11.76
2023-02-04T21:53:55.945Z,11.67
2023-02-04T21:56:22.672Z,11.69
2023-02-04T21:58:49.324Z,11.71
2023-02-04T22:01:15.945Z,11.69
2023-02-04T22:03:42.701Z,11.64
2023-02-04T22:06:09.356Z,11.64
2023-02-04T22:08:36.001Z,11.64
2023-02-04T22:11:02.752Z,11.60
2023-02-04T22:13:29.372Z,11.52
2023-02-04T22:15:56.109Z,11.53
2023-02-04T22:18:22.988Z,11.34
2023-02-04T22:20:49.624Z,11.25
2023-02-04T22:23:16.568Z,11.32
2023-02-04T22:25:46.315Z,11.36
2023-02-04T22:28:14.235Z,11.38
2023-02-04T22:30:40.907Z,11.44
2023-02-04T22:33:07.625Z,11.53
2023-02-04T22:35:36.656Z,11.60
2023-02-04T22:38:03.474Z,11.64
2023-02-04T22:40:30.453Z,11.51
2023-02-04T22:42:57.171Z,11.52
2023-02-04T22:45:23.841Z,11.49
2023-02-04T22:47:50.540Z,11.51
2023-02-04T22:50:17.233Z,11.54
2023-02-04T22:52:44.093Z,11.56
2023-02-04T22:55:10.829Z,11.54
2023-02-04T22:57:37.481Z,11.48
2023-02-04T23:00:08.907Z,11.41
2023-02-04T23:02:35.683Z,11.43
2023-02-04T23:05:03.204Z,11.39
2023-02-04T23:07:30.807Z,11.40
2023-02-04T23:09:57.604Z,11.46
2023-02-04T23:12:24.321Z,11.46
2023-02-04T23:14:51.110Z,11.45
2023-02-04T23:17:18.241Z,11.47
2023-02-04T23:19:45.438Z,11.50
2023-02-04T23:22:13.228Z,11.46
2023-02-04T23:24:41.168Z,11.28
2023-02-04T23:27:10.752Z,11.17
2023-02-04T23:29:38.375Z,11.13
2023-02-04T23:32:05.207Z,11.08
2023-02-04T23:34:34.655Z,11.08
2023-02-04T23:37:01.751Z,11.13
2023-02-04T23:39:28.596Z,11.15
2023-02-04T23:41:55.286Z,11.25
2023-02-04T23:44:21.922Z,11.18
2023-02-04T23:46:48.640Z,11.22
2023-02-04T23:49:15.724Z,11.20
2023-02-04T23:51:42.473Z,11.27
2023-02-04T23:54:09.190Z,11.27
2023-02-04T23:56:35.927Z,11.31
2023-02-04T23:59:02.740Z,11.26
